• Join FlightAware (Why Join?)
  • Login
  • US Flag 
11:34AM EST


 

Airport Tracker/Info


-or-


 

Live Flight TrackerFlight Track Log ✈ LOF3416 ✈ 19-Jul-2013 ✈ KORD - KSGF

Flight Track Log - Related Links

Times and Time Zones

All times are in EDT time to prevent confusion due to time zone crossing. See the LOF3416 flight status page for this flight to view local times or setup timezone preferences in your user account.

Time Position Orientation Groundspeed Altitude Reporting Facility
EDT Latitude Longitude Course Direction KTS MPH feet Rate Location/Type
06:12PM 41.9000 -87.9167 223° Southwest 173 199 3,000  Level Chicago TRACON
06:13PM 41.8500 -87.9333 194° South 196 226 4,700 1,440 Climbing Chicago TRACON
06:13PM 41.8297 -87.9350 184° South 184 212 5,500 1,200 Climbing Chicago Center
06:14PM 41.7542 -87.9733 201° Southwest 242 278 6,800 1,440 Climbing Chicago Center
06:16PM 41.6867 -88.0136 204° Southwest 264 304 8,500 1,500 Climbing Chicago Center
06:17PM 41.5611 -88.4385 224° Southwest  Level Estimated
06:17PM 41.6150 -88.0556 204° Southwest 280 322 10,000  Level Chicago Center
06:18PM 41.4908 -88.5264 223° Southwest  Level Estimated
06:18PM 41.5408 -88.0997 204° Southwest 293 337 11,500  Level Chicago Center
06:19PM 41.4514 -88.1519 204° Southwest 302 348 13,400 1,500 Climbing Chicago Center
06:20PM 41.3744 -88.1944 203° Southwest 310 357 14,700 900 Climbing Chicago Center
06:21PM 41.2925 -88.2306 198° South 316 364 15,300 480 Climbing Chicago Center
06:22PM 41.2033 -88.2714 199° South 341 392 15,800 480 Climbing Chicago Center
06:23PM 41.0919 -88.3219 199° South 357 411 16,400 720 Climbing Chicago Center
06:24PM 40.9972 -88.3650 199° South 361 415 17,300 900 Climbing Chicago Center
06:25PM 40.9036 -88.4053 198° South 358 412 18,300 900 Climbing Chicago Center
06:26PM 40.8100 -88.4472 199° South 357 411 19,200 840 Climbing Chicago Center
06:27PM 40.7172 -88.4883 199° South 354 407 20,100 960 Climbing Chicago Center
06:28PM 40.6075 -88.5383 199° South 351 404 21,300 960 Climbing Chicago Center
06:29PM 40.5167 -88.5775 198° South 347 399 22,200 900 Climbing Chicago Center
06:30PM 40.4236 -88.6189 199° South 337 388 23,200 900 Climbing Chicago Center
06:31PM 40.3339 -88.6586 199° South 337 388 24,100 840 Climbing Chicago Center
06:32PM 40.2650 -88.7322 219° Southwest 324 373 25,000 840 Climbing Chicago Center
06:33PM 40.2028 -88.8122 224° Southwest 315 362 25,900 900 Climbing Chicago Center
06:34PM 40.1403 -88.8911 224° Southwest 311 358 26,900 900 Climbing Chicago Center
06:35PM 40.0789 -88.9683 224° Southwest 306 352 27,800 480 Climbing Chicago Center
06:36PM 40.0056 -89.0631 225° Southwest 309 356 28,000 60 Climbing Chicago Center
06:37PM 39.9536 -89.1275 224° Southwest 309 356 28,000  Level Kansas City Center
06:38PM 39.8831 -89.2156 224° Southwest 329 379 28,000  Level Kansas City Center
06:39PM 39.8117 -89.3069 225° Southwest 352 405 28,000  Level Kansas City Center
06:40PM 39.7219 -89.4181 224° Southwest 366 421 28,000  Level Kansas City Center
06:41PM 39.6486 -89.5117 225° Southwest 375 432 28,000  Level Kansas City Center
06:42PM 39.5708 -89.6083 224° Southwest 384 442 28,000  Level Kansas City Center
06:43PM 39.4942 -89.7044 224° Southwest 385 443 28,100  Climbing Kansas City Center
06:44PM 39.4161 -89.8003 224° Southwest 387 445 28,000 -60 Descending Kansas City Center
06:45PM 39.3222 -89.9172 220° Southwest 390 449 28,000  Level Kansas City Center
06:46PM 39.3459 -89.8772 220° Southwest  Level FlightAware Approximate
06:46PM 39.2425 -90.0153 224° Southwest 394 453 28,100  Level Kansas City Center
06:48PM 39.1633 -90.1125 224° Southwest 395 455 28,100 -60 Level Kansas City Center
06:49PM 39.0825 -90.2131 224° Southwest 401 461 28,000 -60 Descending Kansas City Center
06:50PM 39.0014 -90.3122 224° Southwest 405 466 28,000  Level Kansas City Center
06:52PM 38.8579 -90.4586 218° Southwest  Level FlightAware Approximate
06:53PM 38.7408 -90.6408 218° Southwest 410 472 28,000  Level Kansas City Center
06:54PM 38.6678 -90.7300 240° Southwest 409 471 28,000  Level Kansas City Center
06:55PM 38.6551 -90.8301 240° Southwest  Level FlightAware Approximate
06:56PM 38.4967 -90.9533 226° Southwest 404 465 28,000  Level Kansas City Center
06:57PM 38.4147 -91.0508 223° Southwest 404 465 27,900 -720 Descending Kansas City Center
06:58PM 38.3272 -91.1481 221° Southwest 413 475 26,500 -1,440 Descending Kansas City Center
06:59PM 38.2383 -91.2594 225° Southwest 442 509 25,000 -1,620 Descending Kansas City Center
07:00PM 38.1644 -91.4183 239° Southwest 448 516 23,200 -1,620 Descending Kansas City Center
07:01PM 38.1061 -91.5503 241° Southwest 432 497 21,700 -1,500 Descending Kansas City Center
07:02PM 38.0478 -91.6778 240° Southwest 419 482 20,100 -1,560 Descending Kansas City Center
07:03PM 37.9908 -91.8042 240° Southwest 411 473 18,500 -1,500 Descending Kansas City Center
07:04PM 37.9336 -91.9267 239° Southwest 404 465 17,000 -1,200 Descending Kansas City Center
07:05PM 37.8772 -92.0500 240° Southwest 401 461 16,000 -540 Descending Kansas City Center
07:06PM 37.8206 -92.1744 240° Southwest 408 470 16,000  Level Kansas City Center
07:07PM 37.7628 -92.2989 240° Southwest 410 472 16,000  Level Kansas City Center
07:08PM 37.6939 -92.4444 239° Southwest 406 467 16,000  Level Kansas City Center
07:09PM 37.6331 -92.5758 240° Southwest 407 468 16,000 -120 Level Kansas City Center
07:10PM 37.5778 -92.6942 240° Southwest 395 455 15,800 -780 Descending Kansas City Center
07:11PM 37.5258 -92.8036 239° Southwest 375 432 14,400 -1,980 Descending Kansas City Center
07:12PM 37.4758 -92.9072 239° Southwest 359 413 11,800 -2,220 Descending Kansas City Center
07:13PM 37.4281 -93.0075 239° Southwest 346 398 9,900 -1,620 Descending Kansas City Center
07:14PM 37.3881 -93.0908 239° Southwest 301 346 8,600 -1,440 Descending Kansas City Center
07:15PM 37.3503 -93.1703 239° Southwest 278 320 6,900 -1,980 Descending Kansas City Center
07:16PM 37.3131 -93.2681 244° Southwest 265 305 4,500 -1,920 Descending Kansas City Center
07:17PM 37.3203 -93.3569 276° West 255 293 3,000 -1,020 Descending Kansas City Center
07:19PM 37.3225 -93.4314 272° West 234 269 2,500 -480 Descending Kansas City Center
07:20PM 37.2853 -93.4292 177° South 192 221 2,100 -420 Descending Kansas City Center
07:22PM 37.2457 -93.3886 238° Southwest  Level Estimated
07:29PM 37.2457 -93.3886 238° Southwest  Level Estimated
07:30PM 37.2457 -93.3886 238° Southwest  Level Estimated